sensor_id;sensor_type;location;lat;lon;timestamp;pressure;altitude;pressure_sealevel;temperature;humidity
38267;BME280;24063;51.794;19.578;2022-08-01T00:00:38;98254.45;;;13.35;100.00
38267;BME280;24063;51.794;19.578;2022-08-01T00:01:42;98256.80;;;13.37;100.00
38267;BME280;24063;51.794;19.578;2022-08-01T00:02:44;98255.15;;;13.38;100.00
38267;BME280;24063;51.794;19.578;2022-08-01T00:03:46;98256.53;;;13.40;100.00
38267;BME280;24063;51.794;19.578;2022-08-01T00:04:47;98256.90;;;13.43;100.00
38267;BME280;24063;51.794;19.578;2022-08-01T00:05:49;98256.17;;;13.44;100.00
38267;BME280;24063;51.794;19.578;2022-08-01T00:06:51;98256.90;;;13.43;100.00
38267;BME280;24063;51.794;19.578;2022-08-01T00:07:52;98257.74;;;13.44;100.00
38267;BME280;24063;51.794;19.578;2022-08-01T00:08:54;98257.36;;;13.44;100.00
38267;BME280;24063;51.794;19.578;2022-08-01T00:09:56;98259.13;;;13.45;100.00
38267;BME280;24063;51.794;19.578;2022-08-01T00:10:58;98258.09;;;13.46;100.00
38267;BME280;24063;51.794;19.578;2022-08-01T00:12:03;98260.28;;;13.45;100.00
38267;BME280;24063;51.794;19.578;2022-08-01T00:13:06;98262.64;;;13.44;100.00
38267;BME280;24063;51.794;19.578;2022-08-01T00:14:07;98261.73;;;13.44;100.00
38267;BME280;24063;51.794;19.578;2022-08-01T00:15:13;98262.35;;;13.42;100.00
38267;BME280;24063;51.794;19.578;2022-08-01T00:16:15;98262.33;;;13.40;100.00
38267;BME280;24063;51.794;19.578;2022-08-01T00:17:17;98261.89;;;13.38;100.00
38267;BME280;24063;51.794;19.578;2022-08-01T00:18:19;98262.82;;;13.35;100.00
38267;BME280;24063;51.794;19.578;2022-08-01T00:19:20;98263.56;;;13.31;100.00
38267;BME280;24063;51.794;19.578;2022-08-01T00:20:22;98262.95;;;13.26;100.00
38267;BME280;24063;51.794;19.578;2022-08-01T00:21:24;98265.11;;;13.21;100.00
38267;BME280;24063;51.794;19.578;2022-08-01T00:22:25;98261.89;;;13.16;100.00
38267;BME280;24063;51.794;19.578;2022-08-01T00:23:27;98258.55;;;13.12;100.00
38267;BME280;24063;51.794;19.578;2022-08-01T00:24:29;98259.79;;;13.11;100.00
38267;BME280;24063;51.794;19.578;2022-08-01T00:25:31;98259.42;;;13.09;100.00
38267;BME280;24063;51.794;19.578;2022-08-01T00:26:35;98260.70;;;13.05;100.00
38267;BME280;24063;51.794;19.578;2022-08-01T00:27:36;98258.96;;;13.01;100.00
38267;BME280;24063;51.794;19.578;2022-08-01T00:28:39;98258.00;;;12.98;100.00
38267;BME280;24063;51.794;19.578;2022-08-01T00:29:41;98261.34;;;12.97;100.00
38267;BME280;24063;51.794;19.578;2022-08-01T00:31:02;98260.49;;;12.95;100.00
38267;BME280;24063;51.794;19.578;2022-08-01T00:32:04;98257.36;;;12.94;100.00
38267;BME280;24063;51.794;19.578;2022-08-01T00:33:06;98253.80;;;12.93;100.00
38267;BME280;24063;51.794;19.578;2022-08-01T00:34:08;98256.48;;;12.91;100.00
38267;BME280;24063;51.794;19.578;2022-08-01T00:35:10;98257.23;;;12.89;100.00
38267;BME280;24063;51.794;19.578;2022-08-01T00:36:12;98259.38;;;12.88;100.00
38267;BME280;24063;51.794;19.578;2022-08-01T00:37:13;98262.52;;;12.85;100.00
38267;BME280;24063;51.794;19.578;2022-08-01T00:38:16;98259.51;;;12.83;100.00
38267;BME280;24063;51.794;19.578;2022-08-01T00:39:18;98259.88;;;12.81;100.00
38267;BME280;24063;51.794;19.578;2022-08-01T00:40:20;98260.65;;;12.80;100.00
38267;BME280;24063;51.794;19.578;2022-08-01T00:41:21;98260.47;;;12.78;100.00
38267;BME280;24063;51.794;19.578;2022-08-01T00:42:23;98262.61;;;12.76;100.00
38267;BME280;24063;51.794;19.578;2022-08-01T00:43:25;98259.91;;;12.72;100.00
38267;BME280;24063;51.794;19.578;2022-08-01T00:44:27;98263.52;;;12.71;100.00
38267;BME280;24063;51.794;19.578;2022-08-01T00:45:28;98257.59;;;12.69;100.00
38267;BME280;24063;51.794;19.578;2022-08-01T00:46:31;98257.29;;;12.67;100.00
38267;BME280;24063;51.794;19.578;2022-08-01T00:47:32;98255.84;;;12.65;100.00
38267;BME280;24063;51.794;19.578;2022-08-01T00:48:34;98256.45;;;12.65;100.00
38267;BME280;24063;51.794;19.578;2022-08-01T00:49:36;98255.73;;;12.63;100.00
38267;BME280;24063;51.794;19.578;2022-08-01T00:50:38;98258.52;;;12.62;100.00
38267;BME280;24063;51.794;19.578;2022-08-01T00:51:40;98256.14;;;12.61;100.00
38267;BME280;24063;51.794;19.578;2022-08-01T00:52:43;98258.33;;;12.60;100.00
38267;BME280;24063;51.794;19.578;2022-08-01T00:53:52;98257.73;;;12.57;100.00
38267;BME280;24063;51.794;19.578;2022-08-01T00:54:55;98259.29;;;12.54;100.00
38267;BME280;24063;51.794;19.578;2022-08-01T00:55:57;98258.57;;;12.51;100.00
38267;BME280;24063;51.794;19.578;2022-08-01T00:56:59;98260.65;;;12.50;100.00
38267;BME280;24063;51.794;19.578;2022-08-01T00:58:01;98258.99;;;12.49;100.00
38267;BME280;24063;51.794;19.578;2022-08-01T00:59:07;98260.58;;;12.48;100.00
38267;BME280;24063;51.794;19.578;2022-08-01T01:00:10;98265.43;;;12.46;100.00
38267;BME280;24063;51.794;19.578;2022-08-01T01:01:12;98263.67;;;12.44;100.00
38267;BME280;24063;51.794;19.578;2022-08-01T01:02:14;98261.86;;;12.42;100.00
38267;BME280;24063;51.794;19.578;2022-08-01T01:03:16;98262.55;;;12.40;100.00
38267;BME280;24063;51.794;19.578;2022-08-01T01:04:18;98263.20;;;12.37;100.00
38267;BME280;24063;51.794;19.578;2022-08-01T01:05:20;98261.64;;;12.35;100.00
38267;BME280;24063;51.794;19.578;2022-08-01T01:07:44;98263.99;;;12.31;100.00
38267;BME280;24063;51.794;19.578;2022-08-01T01:09:15;98261.68;;;12.30;100.00
38267;BME280;24063;51.794;19.578;2022-08-01T01:10:21;98263.16;;;12.29;100.00
38267;BME280;24063;51.794;19.578;2022-08-01T01:11:31;98262.73;;;12.29;100.00
38267;BME280;24063;51.794;19.578;2022-08-01T01:12:51;98260.13;;;12.29;100.00
38267;BME280;24063;51.794;19.578;2022-08-01T01:14:04;98261.05;;;12.28;100.00
38267;BME280;24063;51.794;19.578;2022-08-01T01:15:10;98258.30;;;12.27;100.00
38267;BME280;24063;51.794;19.578;2022-08-01T01:16:15;98261.09;;;12.26;100.00
38267;BME280;24063;51.794;19.578;2022-08-01T01:17:24;98261.19;;;12.26;100.00
38267;BME280;24063;51.794;19.578;2022-08-01T01:18:58;98258.15;;;12.26;100.00
38267;BME280;24063;51.794;19.578;2022-08-01T01:20:03;98260.34;;;12.25;100.00
38267;BME280;24063;51.794;19.578;2022-08-01T01:22:41;98258.13;;;12.24;100.00
38267;BME280;24063;51.794;19.578;2022-08-01T01:25:46;98259.52;;;12.22;100.00
38267;BME280;24063;51.794;19.578;2022-08-01T01:27:10;98260.40;;;12.21;100.00
38267;BME280;24063;51.794;19.578;2022-08-01T01:29:42;98257.98;;;12.21;100.00
38267;BME280;24063;51.794;19.578;2022-08-01T01:30:26;98257.21;;;12.21;100.00
38267;BME280;24063;51.794;19.578;2022-08-01T01:31:36;98257.16;;;12.21;100.00
38267;BME280;24063;51.794;19.578;2022-08-01T01:32:43;98256.30;;;12.21;100.00
38267;BME280;24063;51.794;19.578;2022-08-01T01:33:48;98255.81;;;12.20;100.00
38267;BME280;24063;51.794;19.578;2022-08-01T01:34:54;98255.25;;;12.21;100.00
38267;BME280;24063;51.794;19.578;2022-08-01T01:36:01;98256.42;;;12.23;100.00
38267;BME280;24063;51.794;19.578;2022-08-01T01:37:16;98255.66;;;12.23;100.00
38267;BME280;24063;51.794;19.578;2022-08-01T01:38:32;98250.66;;;12.24;100.00
38267;BME280;24063;51.794;19.578;2022-08-01T01:39:36;98251.41;;;12.24;100.00
38267;BME280;24063;51.794;19.578;2022-08-01T01:40:47;98252.70;;;12.25;100.00
38267;BME280;24063;51.794;19.578;2022-08-01T01:41:53;98248.98;;;12.24;100.00
38267;BME280;24063;51.794;19.578;2022-08-01T01:42:56;98250.30;;;12.23;100.00
38267;BME280;24063;51.794;19.578;2022-08-01T01:44:01;98246.53;;;12.22;100.00
38267;BME280;24063;51.794;19.578;2022-08-01T01:45:06;98249.75;;;12.23;100.00
38267;BME280;24063;51.794;19.578;2022-08-01T01:46:11;98249.98;;;12.23;100.00
38267;BME280;24063;51.794;19.578;2022-08-01T01:47:16;98252.41;;;12.22;100.00
38267;BME280;24063;51.794;19.578;2022-08-01T01:48:20;98254.66;;;12.21;100.00
38267;BME280;24063;51.794;19.578;2022-08-01T01:49:25;98255.26;;;12.20;100.00
38267;BME280;24063;51.794;19.578;2022-08-01T01:50:29;98254.51;;;12.20;100.00
38267;BME280;24063;51.794;19.578;2022-08-01T01:51:33;98254.48;;;12.22;100.00
38267;BME280;24063;51.794;19.578;2022-08-01T01:52:36;98254.73;;;12.23;100.00
38267;BME280;24063;51.794;19.578;2022-08-01T01:53:40;98257.13;;;12.23;100.00
38267;BME280;24063;51.794;19.578;2022-08-01T01:54:47;98258.92;;;12.22;100.00
38267;BME280;24063;51.794;19.578;2022-08-01T01:55:52;98255.27;;;12.21;100.00
38267;BME280;24063;51.794;19.578;2022-08-01T01:56:58;98258.13;;;12.21;100.00
38267;BME280;24063;51.794;19.578;2022-08-01T01:58:01;98259.48;;;12.21;100.00
38267;BME280;24063;51.794;19.578;2022-08-01T01:59:04;98260.02;;;12.21;100.00
38267;BME280;24063;51.794;19.578;2022-08-01T02:00:07;98261.81;;;12.21;100.00
38267;BME280;24063;51.794;19.578;2022-08-01T02:01:11;98261.99;;;12.20;100.00
38267;BME280;24063;51.794;19.578;2022-08-01T02:02:16;98261.27;;;12.17;100.00
38267;BME280;24063;51.794;19.578;2022-08-01T02:03:20;98256.27;;;12.15;100.00
38267;BME280;24063;51.794;19.578;2022-08-01T02:04:25;98257.59;;;12.14;100.00
38267;BME280;24063;51.794;19.578;2022-08-01T02:05:28;98259.16;;;12.13;100.00
38267;BME280;24063;51.794;19.578;2022-08-01T02:06:32;98257.11;;;12.13;100.00
38267;BME280;24063;51.794;19.578;2022-08-01T02:07:36;98255.38;;;12.13;100.00
38267;BME280;24063;51.794;19.578;2022-08-01T02:08:42;98255.77;;;12.13;100.00
38267;BME280;24063;51.794;19.578;2022-08-01T02:09:46;98255.43;;;12.13;100.00
38267;BME280;24063;51.794;19.578;2022-08-01T02:10:51;98255.98;;;12.13;100.00
38267;BME280;24063;51.794;19.578;2022-08-01T02:12:16;98255.94;;;12.12;100.00
38267;BME280;24063;51.794;19.578;2022-08-01T02:13:19;98255.11;;;12.13;100.00
38267;BME280;24063;51.794;19.578;2022-08-01T02:14:23;98256.27;;;12.13;100.00
38267;BME280;24063;51.794;19.578;2022-08-01T02:15:26;98250.80;;;12.11;100.00
38267;BME280;24063;51.794;19.578;2022-08-01T02:16:34;98254.50;;;12.09;100.00
38267;BME280;24063;51.794;19.578;2022-08-01T02:17:41;98250.73;;;12.07;100.00
38267;BME280;24063;51.794;19.578;2022-08-01T02:18:45;98251.52;;;12.06;100.00
38267;BME280;24063;51.794;19.578;2022-08-01T02:19:47;98253.10;;;12.06;100.00
38267;BME280;24063;51.794;19.578;2022-08-01T02:20:52;98251.57;;;12.05;100.00
38267;BME280;24063;51.794;19.578;2022-08-01T02:22:05;98249.62;;;12.04;100.00
38267;BME280;24063;51.794;19.578;2022-08-01T02:23:12;98247.52;;;12.01;100.00
38267;BME280;24063;51.794;19.578;2022-08-01T02:24:24;98249.25;;;12.02;100.00
38267;BME280;24063;51.794;19.578;2022-08-01T02:25:36;98247.03;;;12.02;100.00
38267;BME280;24063;51.794;19.578;2022-08-01T02:27:05;98247.66;;;12.04;100.00
38267;BME280;24063;51.794;19.578;2022-08-01T02:28:35;98247.09;;;12.02;100.00
38267;BME280;24063;51.794;19.578;2022-08-01T02:29:40;98249.79;;;12.03;100.00
38267;BME280;24063;51.794;19.578;2022-08-01T02:30:47;98247.46;;;12.02;100.00
38267;BME280;24063;51.794;19.578;2022-08-01T02:31:53;98245.73;;;12.01;100.00
38267;BME280;24063;51.794;19.578;2022-08-01T02:33:05;98245.43;;;12.00;100.00
38267;BME280;24063;51.794;19.578;2022-08-01T02:34:18;98250.50;;;11.98;100.00
38267;BME280;24063;51.794;19.578;2022-08-01T02:35:27;98250.60;;;11.98;100.00
38267;BME280;24063;51.794;19.578;2022-08-01T02:36:33;98251.80;;;11.98;100.00
38267;BME280;24063;51.794;19.578;2022-08-01T02:37:38;98250.59;;;11.95;100.00
38267;BME280;24063;51.794;19.578;2022-08-01T02:38:45;98244.94;;;11.93;100.00
38267;BME280;24063;51.794;19.578;2022-08-01T02:39:51;98251.02;;;11.93;100.00
38267;BME280;24063;51.794;19.578;2022-08-01T02:40:58;98251.06;;;11.92;100.00
38267;BME280;24063;51.794;19.578;2022-08-01T02:42:06;98250.58;;;11.93;100.00
38267;BME280;24063;51.794;19.578;2022-08-01T02:43:09;98252.04;;;11.93;100.00
38267;BME280;24063;51.794;19.578;2022-08-01T02:44:18;98254.17;;;11.95;100.00
38267;BME280;24063;51.794;19.578;2022-08-01T02:45:26;98253.08;;;11.96;100.00
38267;BME280;24063;51.794;19.578;2022-08-01T02:46:50;98252.67;;;11.97;100.00
38267;BME280;24063;51.794;19.578;2022-08-01T02:48:00;98251.63;;;11.99;100.00
38267;BME280;24063;51.794;19.578;2022-08-01T02:49:06;98250.36;;;11.99;100.00
38267;BME280;24063;51.794;19.578;2022-08-01T02:50:10;98248.99;;;12.00;100.00
38267;BME280;24063;51.794;19.578;2022-08-01T02:51:16;98248.63;;;12.00;100.00
38267;BME280;24063;51.794;19.578;2022-08-01T02:52:21;98249.26;;;12.01;100.00
38267;BME280;24063;51.794;19.578;2022-08-01T02:53:27;98251.90;;;12.02;100.00
38267;BME280;24063;51.794;19.578;2022-08-01T02:54:48;98251.02;;;12.03;100.00
38267;BME280;24063;51.794;19.578;2022-08-01T02:55:52;98248.60;;;12.02;100.00
38267;BME280;24063;51.794;19.578;2022-08-01T02:56:56;98249.96;;;12.01;100.00
38267;BME280;24063;51.794;19.578;2022-08-01T02:58:00;98251.06;;;12.00;100.00
38267;BME280;24063;51.794;19.578;2022-08-01T02:59:07;98245.95;;;11.98;100.00
38267;BME280;24063;51.794;19.578;2022-08-01T03:00:11;98248.34;;;11.97;100.00
38267;BME280;24063;51.794;19.578;2022-08-01T03:01:16;98251.35;;;11.96;100.00
38267;BME280;24063;51.794;19.578;2022-08-01T03:02:22;98252.13;;;11.95;100.00
38267;BME280;24063;51.794;19.578;2022-08-01T03:03:25;98251.86;;;11.94;100.00
38267;BME280;24063;51.794;19.578;2022-08-01T03:04:27;98250.64;;;11.92;100.00
38267;BME280;24063;51.794;19.578;2022-08-01T03:05:31;98252.70;;;11.90;100.00
38267;BME280;24063;51.794;19.578;2022-08-01T03:06:35;98249.90;;;11.88;100.00
38267;BME280;24063;51.794;19.578;2022-08-01T03:07:41;98251.25;;;11.85;100.00
38267;BME280;24063;51.794;19.578;2022-08-01T03:08:44;98251.31;;;11.84;100.00
38267;BME280;24063;51.794;19.578;2022-08-01T03:09:49;98251.02;;;11.82;100.00
38267;BME280;24063;51.794;19.578;2022-08-01T03:10:54;98251.15;;;11.80;100.00
38267;BME280;24063;51.794;19.578;2022-08-01T03:12:02;98250.27;;;11.78;100.00
38267;BME280;24063;51.794;19.578;2022-08-01T03:13:08;98247.30;;;11.77;100.00
38267;BME280;24063;51.794;19.578;2022-08-01T03:14:12;98250.28;;;11.76;100.00
38267;BME280;24063;51.794;19.578;2022-08-01T03:15:17;98251.38;;;11.75;100.00
38267;BME280;24063;51.794;19.578;2022-08-01T03:16:23;98247.96;;;11.75;100.00
38267;BME280;24063;51.794;19.578;2022-08-01T03:17:29;98244.59;;;11.76;100.00
38267;BME280;24063;51.794;19.578;2022-08-01T03:18:33;98244.38;;;11.76;100.00
38267;BME280;24063;51.794;19.578;2022-08-01T03:19:38;98249.83;;;11.78;100.00
38267;BME280;24063;51.794;19.578;2022-08-01T03:20:42;98248.02;;;11.80;100.00
38267;BME280;24063;51.794;19.578;2022-08-01T03:21:47;98249.33;;;11.83;100.00
38267;BME280;24063;51.794;19.578;2022-08-01T03:22:51;98249.40;;;11.86;100.00
38267;BME280;24063;51.794;19.578;2022-08-01T03:23:58;98251.85;;;11.88;100.00
38267;BME280;24063;51.794;19.578;2022-08-01T03:25:02;98250.50;;;11.88;100.00
38267;BME280;24063;51.794;19.578;2022-08-01T03:26:05;98250.32;;;11.89;100.00
38267;BME280;24063;51.794;19.578;2022-08-01T03:27:08;98248.82;;;11.89;100.00
38267;BME280;24063;51.794;19.578;2022-08-01T03:28:13;98245.40;;;11.90;100.00
38267;BME280;24063;51.794;19.578;2022-08-01T03:29:24;98247.51;;;11.91;100.00
38267;BME280;24063;51.794;19.578;2022-08-01T03:30:27;98246.24;;;11.92;100.00
38267;BME280;24063;51.794;19.578;2022-08-01T03:31:34;98250.89;;;11.93;100.00
38267;BME280;24063;51.794;19.578;2022-08-01T03:32:36;98252.70;;;11.92;100.00
38267;BME280;24063;51.794;19.578;2022-08-01T03:33:38;98255.47;;;11.91;100.00
38267;BME280;24063;51.794;19.578;2022-08-01T03:34:40;98255.73;;;11.88;100.00
38267;BME280;24063;51.794;19.578;2022-08-01T03:35:53;98254.73;;;11.87;100.00
38267;BME280;24063;51.794;19.578;2022-08-01T03:37:36;98256.20;;;11.86;100.00
38267;BME280;24063;51.794;19.578;2022-08-01T03:38:32;98253.44;;;11.87;100.00
38267;BME280;24063;51.794;19.578;2022-08-01T03:39:43;98249.20;;;11.87;100.00
38267;BME280;24063;51.794;19.578;2022-08-01T03:41:09;98250.27;;;11.88;100.00
38267;BME280;24063;51.794;19.578;2022-08-01T03:42:18;98249.11;;;11.86;100.00
38267;BME280;24063;51.794;19.578;2022-08-01T03:43:33;98250.47;;;11.87;100.00
38267;BME280;24063;51.794;19.578;2022-08-01T03:44:39;98248.23;;;11.88;100.00
38267;BME280;24063;51.794;19.578;2022-08-01T03:45:51;98252.16;;;11.90;100.00
38267;BME280;24063;51.794;19.578;2022-08-01T03:47:00;98250.46;;;11.93;100.00
38267;BME280;24063;51.794;19.578;2022-08-01T03:48:09;98252.39;;;11.95;100.00
38267;BME280;24063;51.794;19.578;2022-08-01T03:49:20;98255.38;;;11.97;100.00
38267;BME280;24063;51.794;19.578;2022-08-01T03:50:23;98254.68;;;11.97;100.00
38267;BME280;24063;51.794;19.578;2022-08-01T03:51:27;98255.71;;;11.97;100.00
38267;BME280;24063;51.794;19.578;2022-08-01T03:52:32;98258.45;;;11.99;100.00
38267;BME280;24063;51.794;19.578;2022-08-01T03:53:38;98257.55;;;12.01;100.00
38267;BME280;24063;51.794;19.578;2022-08-01T03:54:52;98259.63;;;12.03;100.00
38267;BME280;24063;51.794;19.578;2022-08-01T03:55:55;98253.92;;;12.05;100.00
38267;BME280;24063;51.794;19.578;2022-08-01T03:57:00;98256.29;;;12.05;100.00
38267;BME280;24063;51.794;19.578;2022-08-01T03:58:05;98261.00;;;12.06;100.00
38267;BME280;24063;51.794;19.578;2022-08-01T03:59:11;98261.09;;;12.08;100.00
38267;BME280;24063;51.794;19.578;2022-08-01T04:00:13;98265.08;;;12.08;100.00
38267;BME280;24063;51.794;19.578;2022-08-01T04:01:20;98264.89;;;12.07;100.00
38267;BME280;24063;51.794;19.578;2022-08-01T04:02:22;98262.41;;;12.06;100.00
38267;BME280;24063;51.794;19.578;2022-08-01T04:03:25;98263.46;;;12.05;100.00
38267;BME280;24063;51.794;19.578;2022-08-01T04:04:28;98261.27;;;12.03;100.00
38267;BME280;24063;51.794;19.578;2022-08-01T04:05:30;98260.41;;;12.02;100.00
38267;BME280;24063;51.794;19.578;2022-08-01T04:06:32;98261.98;;;12.01;100.00
38267;BME280;24063;51.794;19.578;2022-08-01T04:07:34;98261.77;;;12.01;100.00
38267;BME280;24063;51.794;19.578;2022-08-01T04:08:41;98266.41;;;12.03;100.00
38267;BME280;24063;51.794;19.578;2022-08-01T04:09:43;98265.46;;;12.05;100.00
38267;BME280;24063;51.794;19.578;2022-08-01T04:10:44;98267.70;;;12.07;100.00
38267;BME280;24063;51.794;19.578;2022-08-01T04:11:47;98268.20;;;12.11;100.00
38267;BME280;24063;51.794;19.578;2022-08-01T04:12:49;98270.70;;;12.13;100.00
38267;BME280;24063;51.794;19.578;2022-08-01T04:13:52;98271.73;;;12.18;100.00
38267;BME280;24063;51.794;19.578;2022-08-01T04:14:55;98269.14;;;12.21;100.00
38267;BME280;24063;51.794;19.578;2022-08-01T04:15:57;98271.20;;;12.23;100.00
38267;BME280;24063;51.794;19.578;2022-08-01T04:16:59;98273.02;;;12.26;100.00
38267;BME280;24063;51.794;19.578;2022-08-01T04:18:00;98271.21;;;12.30;100.00
38267;BME280;24063;51.794;19.578;2022-08-01T04:19:02;98272.48;;;12.33;100.00
38267;BME280;24063;51.794;19.578;2022-08-01T04:20:05;98274.03;;;12.34;100.00
38267;BME280;24063;51.794;19.578;2022-08-01T04:21:07;98275.25;;;12.36;100.00
38267;BME280;24063;51.794;19.578;2022-08-01T04:22:14;98277.35;;;12.36;100.00
38267;BME280;24063;51.794;19.578;2022-08-01T04:23:24;98275.02;;;12.36;100.00
38267;BME280;24063;51.794;19.578;2022-08-01T04:24:29;98279.56;;;12.37;100.00
38267;BME280;24063;51.794;19.578;2022-08-01T04:25:35;98280.10;;;12.38;100.00
38267;BME280;24063;51.794;19.578;2022-08-01T04:26:40;98280.09;;;12.39;100.00
38267;BME280;24063;51.794;19.578;2022-08-01T04:27:47;98283.21;;;12.39;100.00
38267;BME280;24063;51.794;19.578;2022-08-01T04:28:54;98285.36;;;12.42;100.00
38267;BME280;24063;51.794;19.578;2022-08-01T04:29:58;98283.95;;;12.44;100.00
38267;BME280;24063;51.794;19.578;2022-08-01T04:31:02;98286.67;;;12.47;100.00
38267;BME280;24063;51.794;19.578;2022-08-01T04:32:11;98284.84;;;12.50;100.00
38267;BME280;24063;51.794;19.578;2022-08-01T04:33:16;98280.84;;;12.52;100.00
38267;BME280;24063;51.794;19.578;2022-08-01T04:34:22;98278.77;;;12.56;100.00
38267;BME280;24063;51.794;19.578;2022-08-01T04:35:27;98277.31;;;12.60;100.00
38267;BME280;24063;51.794;19.578;2022-08-01T04:36:52;98275.75;;;12.65;100.00
38267;BME280;24063;51.794;19.578;2022-08-01T04:37:57;98274.54;;;12.70;100.00
38267;BME280;24063;51.794;19.578;2022-08-01T04:39:02;98276.19;;;12.71;100.00
38267;BME280;24063;51.794;19.578;2022-08-01T04:40:06;98274.08;;;12.72;100.00
38267;BME280;24063;51.794;19.578;2022-08-01T04:41:12;98273.17;;;12.74;100.00
38267;BME280;24063;51.794;19.578;2022-08-01T04:42:15;98274.12;;;12.76;100.00
38267;BME280;24063;51.794;19.578;2022-08-01T04:43:26;98272.23;;;12.78;100.00
38267;BME280;24063;51.794;19.578;2022-08-01T04:44:28;98275.86;;;12.81;100.00
38267;BME280;24063;51.794;19.578;2022-08-01T04:45:34;98277.64;;;12.85;100.00
38267;BME280;24063;51.794;19.578;2022-08-01T04:46:39;98273.70;;;12.90;100.00
38267;BME280;24063;51.794;19.578;2022-08-01T04:47:42;98274.52;;;12.93;100.00
38267;BME280;24063;51.794;19.578;2022-08-01T04:48:45;98275.33;;;12.96;100.00
38267;BME280;24063;51.794;19.578;2022-08-01T04:49:48;98271.20;;;13.00;100.00
38267;BME280;24063;51.794;19.578;2022-08-01T04:50:50;98273.66;;;13.04;100.00
38267;BME280;24063;51.794;19.578;2022-08-01T04:51:54;98275.48;;;13.07;100.00
38267;BME280;24063;51.794;19.578;2022-08-01T04:52:59;98275.73;;;13.10;100.00
38267;BME280;24063;51.794;19.578;2022-08-01T04:54:01;98270.88;;;13.12;100.00
38267;BME280;24063;51.794;19.578;2022-08-01T04:55:04;98273.80;;;13.15;100.00
38267;BME280;24063;51.794;19.578;2022-08-01T04:56:07;98271.13;;;13.18;100.00
38267;BME280;24063;51.794;19.578;2022-08-01T04:57:09;98272.33;;;13.21;100.00
38267;BME280;24063;51.794;19.578;2022-08-01T04:58:12;98273.11;;;13.26;100.00
38267;BME280;24063;51.794;19.578;2022-08-01T04:59:19;98276.08;;;13.30;100.00
38267;BME280;24063;51.794;19.578;2022-08-01T05:00:40;98276.30;;;13.33;100.00
38267;BME280;24063;51.794;19.578;2022-08-01T05:01:41;98274.81;;;13.37;100.00
38267;BME280;24063;51.794;19.578;2022-08-01T05:02:43;98276.95;;;13.42;100.00
38267;BME280;24063;51.794;19.578;2022-08-01T05:03:45;98278.08;;;13.46;100.00
38267;BME280;24063;51.794;19.578;2022-08-01T05:04:47;98280.35;;;13.49;100.00
38267;BME280;24063;51.794;19.578;2022-08-01T05:05:48;98275.27;;;13.51;100.00
38267;BME280;24063;51.794;19.578;2022-08-01T05:06:50;98278.23;;;13.54;100.00
38267;BME280;24063;51.794;19.578;2022-08-01T05:07:52;98277.35;;;13.58;100.00
38267;BME280;24063;51.794;19.578;2022-08-01T05:08:53;98278.65;;;13.60;100.00
38267;BME280;24063;51.794;19.578;2022-08-01T05:09:55;98277.60;;;13.64;100.00
38267;BME280;24063;51.794;19.578;2022-08-01T05:10:57;98279.42;;;13.68;100.00
38267;BME280;24063;51.794;19.578;2022-08-01T05:12:00;98278.12;;;13.73;100.00
38267;BME280;24063;51.794;19.578;2022-08-01T05:13:03;98277.81;;;13.77;100.00
38267;BME280;24063;51.794;19.578;2022-08-01T05:14:05;98276.97;;;13.82;100.00
38267;BME280;24063;51.794;19.578;2022-08-01T05:15:08;98278.85;;;13.85;100.00
38267;BME280;24063;51.794;19.578;2022-08-01T05:16:16;98280.60;;;13.89;100.00
38267;BME280;24063;51.794;19.578;2022-08-01T05:17:18;98281.06;;;13.93;100.00
38267;BME280;24063;51.794;19.578;2022-08-01T05:18:20;98282.35;;;13.97;100.00
38267;BME280;24063;51.794;19.578;2022-08-01T05:19:29;98282.77;;;14.00;100.00
38267;BME280;24063;51.794;19.578;2022-08-01T05:20:33;98281.48;;;14.04;100.00
38267;BME280;24063;51.794;19.578;2022-08-01T05:21:36;98279.71;;;14.05;100.00
38267;BME280;24063;51.794;19.578;2022-08-01T05:22:39;98281.83;;;14.06;100.00
38267;BME280;24063;51.794;19.578;2022-08-01T05:23:40;98284.60;;;14.08;100.00
38267;BME280;24063;51.794;19.578;2022-08-01T05:24:44;98284.13;;;14.10;100.00
38267;BME280;24063;51.794;19.578;2022-08-01T05:25:45;98278.35;;;14.13;100.00
38267;BME280;24063;51.794;19.578;2022-08-01T05:26:59;98281.89;;;14.20;100.00
38267;BME280;24063;51.794;19.578;2022-08-01T05:28:03;98276.20;;;14.24;100.00
38267;BME280;24063;51.794;19.578;2022-08-01T05:29:06;98277.30;;;14.28;100.00
38267;BME280;24063;51.794;19.578;2022-08-01T05:30:09;98276.27;;;14.33;100.00
38267;BME280;24063;51.794;19.578;2022-08-01T05:31:11;98277.38;;;14.36;100.00
38267;BME280;24063;51.794;19.578;2022-08-01T05:32:13;98276.86;;;14.38;100.00
38267;BME280;24063;51.794;19.578;2022-08-01T05:33:14;98275.33;;;14.40;100.00
38267;BME280;24063;51.794;19.578;2022-08-01T05:34:16;98275.44;;;14.45;100.00
38267;BME280;24063;51.794;19.578;2022-08-01T05:35:18;98275.34;;;14.49;100.00
38267;BME280;24063;51.794;19.578;2022-08-01T05:36:19;98273.29;;;14.53;100.00
38267;BME280;24063;51.794;19.578;2022-08-01T05:37:21;98273.60;;;14.56;100.00
38267;BME280;24063;51.794;19.578;2022-08-01T05:38:23;98276.34;;;14.59;100.00
38267;BME280;24063;51.794;19.578;2022-08-01T05:39:24;98274.79;;;14.62;100.00
38267;BME280;24063;51.794;19.578;2022-08-01T05:40:26;98275.52;;;14.64;100.00
38267;BME280;24063;51.794;19.578;2022-08-01T05:41:28;98274.05;;;14.67;100.00
38267;BME280;24063;51.794;19.578;2022-08-01T05:42:30;98274.11;;;14.71;100.00
38267;BME280;24063;51.794;19.578;2022-08-01T05:43:31;98282.39;;;14.76;100.00